Barra Funda, Brazil
Current Conditions -  °F | °C
As of 4:30 AM on Monday 26 Jan 2015 (Local Time) from SBCH Reporting Station
Clear Clear  
Wind Chill: 68°   Ceiling: Unl
Heat Index: 68°   Visibility: 6mi
Dew Point: 64°   Wind: 9mph
Humidity: 88%   Direction: 50°NE
Pressure: 29.91"   Gusts: NA
Location:  27.92°S, 53.04°W
Report Text: SBCH 260630Z 05008KT CAVOK 20/18 Q1013
Loading
Personal Weather Stations






























Interactive Weather Map New forecast layout! Learn more

10-Day Weather Forecast

Advertisements
Track Severe Weather on mobile